Time;durP1;ratioP1;P1;durP2;ratioP2;P2;SDS_P1;SDS_P2;PMS_P1;PMS_P2;Temp;Humidity;BMP_temperature;BMP_pressure;BME280_temperature;BME280_humidity;BME280_pressure;Samples;Min_cycle;Max_cycle;Signal;HPM_P1;HPM_P2
2021/07/06 03:35:30;;;;;;;2.90;2.57;;;;;;;20.42;61.45;98108.03;6897122;28;20213;-84
2021/07/06 03:38:51;;;;;;;6.03;2.87;;;;;;;20.50;61.23;98070.97;6896657;28;20213;-83
2021/07/06 03:42:13;;;;;;;3.00;2.80;;;;;;;20.67;60.98;98098.78;6883477;28;20617;-83
2021/07/06 03:45:36;;;;;;;6.57;2.77;;;;;;;20.41;61.31;98091.88;6871774;28;20198;-82
2021/07/06 03:48:57;;;;;;;2.87;2.60;;;;;;;20.12;61.63;98058.97;6878643;28;20740;-81
2021/07/06 03:52:21;;;;;;;6.43;2.90;;;;;;;20.17;61.92;98075.31;6876775;28;20228;-82
2021/07/06 03:55:43;;;;;;;3.93;2.87;;;;;;;20.23;62.10;98070.66;6878241;28;20193;-83
2021/07/06 03:59:04;;;;;;;3.20;2.60;;;;;;;19.51;62.69;97974.78;6865717;28;20206;-82
2021/07/06 04:02:26;;;;;;;3.10;2.80;;;;;;;20.06;62.05;98038.19;6851100;29;20233;-84
2021/07/06 04:05:52;;;;;;;3.30;3.00;;;;;;;19.97;63.31;98056.28;6851532;28;20209;-82
2021/07/06 04:09:15;;;;;;;10.23;2.80;;;;;;;20.13;62.97;98055.13;6895234;28;20227;-83
2021/07/06 04:12:37;;;;;;;6.20;3.13;;;;;;;19.71;63.91;98041.13;6903426;28;20231;-83
2021/07/06 04:15:58;;;;;;;4.27;3.03;;;;;;;20.36;62.15;98051.66;6851256;28;20210;-83
2021/07/06 04:19:20;;;;;;;3.63;2.57;;;;;;;20.53;61.98;98048.50;6851184;29;20576;-83
2021/07/06 04:22:42;;;;;;;2.80;2.57;;;;;;;20.10;62.62;98035.72;6850433;29;20237;-82
2021/07/06 04:26:05;;;;;;;3.67;2.60;;;;;;;20.42;62.65;98060.63;6850399;29;20209;-82
2021/07/06 04:29:27;;;;;;;5.17;2.77;;;;;;;20.38;62.32;98065.88;6850306;29;20237;-82
2021/07/06 04:32:49;;;;;;;3.67;2.50;;;;;;;20.51;62.10;98062.47;6849633;29;20237;-84
2021/07/06 04:36:11;;;;;;;4.90;3.17;;;;;;;20.65;61.49;98062.63;6850390;29;20202;-83
2021/07/06 04:39:32;;;;;;;5.07;2.90;;;;;;;20.76;61.15;98064.19;6850623;29;20292;-84
2021/07/06 04:42:55;;;;;;;7.07;2.90;;;;;;;20.93;60.38;98012.53;6849928;29;20225;-84
2021/07/06 04:46:18;;;;;;;3.23;2.93;;;;;;;21.25;59.39;98030.00;6857288;28;20232;-84
2021/07/06 04:49:40;;;;;;;2.73;2.53;;;;;;;21.06;60.80;98048.31;6871128;28;20217;-83
2021/07/06 04:53:01;;;;;;;3.00;2.43;;;;;;;21.20;60.54;98036.31;6853777;28;20226;-84
2021/07/06 04:56:25;;;;;;;4.87;2.43;;;;;;;21.02;60.81;98027.22;6850401;29;20209;-84
2021/07/06 04:59:48;;;;;;;5.00;2.93;;;;;;;21.97;58.64;98016.72;6849763;29;20210;-84
2021/07/06 05:03:12;;;;;;;3.23;2.77;;;;;;;22.40;58.25;98003.66;6877136;28;20280;-84
2021/07/06 05:06:33;;;;;;;3.13;2.83;;;;;;;22.72;57.73;98001.75;6878300;28;20201;-84
2021/07/06 05:09:55;;;;;;;3.17;2.50;;;;;;;23.24;56.22;98022.53;6877958;28;20221;-84
2021/07/06 05:13:17;;;;;;;2.13;2.00;;;;;;;23.41;56.04;98019.97;6876469;28;20233;-84
2021/07/06 05:16:40;;;;;;;2.03;1.83;;;;;;;23.88;53.03;98009.34;6876790;28;20590;-84
2021/07/06 05:20:01;;;;;;;1.70;1.60;;;;;;;24.31;52.08;98029.00;6876002;28;20212;-84
2021/07/06 05:23:23;;;;;;;2.10;1.90;;;;;;;24.11;51.43;98019.28;6876293;28;20237;-84
2021/07/06 05:26:44;;;;;;;1.97;1.87;;;;;;;24.20;51.44;98013.84;6875242;28;20217;-83
2021/07/06 05:30:08;;;;;;;5.53;2.13;;;;;;;24.28;51.42;98019.41;6876486;28;20237;-83
2021/07/06 05:33:32;;;;;;;3.37;1.80;;;;;;;24.29;52.62;98026.56;6876081;28;20313;-83
2021/07/06 05:36:54;;;;;;;2.60;2.30;;;;;;;24.21;53.70;98020.97;6877667;28;20216;-83
2021/07/06 05:40:16;;;;;;;4.47;2.23;;;;;;;24.35;53.38;97997.75;6877963;28;20230;-83
2021/07/06 05:43:38;;;;;;;15.20;6.83;;;;;;;24.46;52.02;97981.78;6877903;28;20197;-82
2021/07/06 05:46:59;;;;;;;4.80;2.73;;;;;;;25.77;50.43;97966.00;6877030;28;20205;-83
2021/07/06 05:50:22;;;;;;;3.00;2.00;;;;;;;26.23;48.37;97969.78;6876847;28;20238;-84
2021/07/06 05:53:47;;;;;;;2.67;1.63;;;;;;;26.83;44.85;97956.66;6876499;28;20227;-84
2021/07/06 05:57:09;;;;;;;2.17;1.40;;;;;;;27.40;44.99;97993.09;6875948;28;20213;-85
2021/07/06 06:00:30;;;;;;;1.70;1.60;;;;;;;27.31;44.02;97984.03;6877125;28;20208;-85
2021/07/06 06:03:52;;;;;;;2.37;1.37;;;;;;;27.02;45.13;97984.75;6880528;28;20208;-84
2021/07/06 06:07:15;;;;;;;1.47;1.37;;;;;;;26.76;44.30;97984.03;6880346;28;20210;-85
2021/07/06 06:10:37;;;;;;;1.97;1.57;;;;;;;27.02;46.55;97979.22;6879522;28;20617;-85
2021/07/06 06:13:58;;;;;;;1.80;1.70;;;;;;;28.55;41.85;98003.25;6879876;28;20216;-85
2021/07/06 06:17:20;;;;;;;2.17;1.40;;;;;;;29.13;41.70;98010.53;6877450;28;20208;-85
2021/07/06 06:20:42;;;;;;;1.60;1.50;;;;;;;29.48;40.42;98023.66;6875680;28;20619;-85
2021/07/06 06:24:05;;;;;;;1.40;1.33;;;;;;;29.64;41.45;98019.06;6875634;28;20221;-85
2021/07/06 06:27:27;;;;;;;3.07;1.50;;;;;;;29.12;42.23;98025.56;6875976;28;20208;-85
2021/07/06 06:30:49;;;;;;;1.87;1.33;;;;;;;29.06;43.38;98024.16;6875319;28;20763;-85
2021/07/06 06:34:11;;;;;;;4.13;1.90;;;;;;;29.42;41.81;97982.56;6875416;28;20229;-85
2021/07/06 06:37:33;;;;;;;2.60;1.73;;;;;;;29.34;42.06;98003.75;6875797;28;20201;-84
2021/07/06 06:40:56;;;;;;;1.90;1.27;;;;;;;29.75;39.55;98017.44;6873013;28;20240;-85
2021/07/06 06:44:18;;;;;;;1.73;1.30;;;;;;;30.32;39.80;98006.94;6847657;29;20206;-84
2021/07/06 06:47:41;;;;;;;4.17;1.57;;;;;;;30.15;38.94;97996.09;6846890;29;20203;-84
2021/07/06 06:51:03;;;;;;;7.73;1.73;;;;;;;29.96;41.14;97973.63;6848066;28;20235;-84
2021/07/06 06:54:24;;;;;;;2.20;1.40;;;;;;;30.42;39.75;97973.06;6847338;28;20222;-85
2021/07/06 06:57:47;;;;;;;2.10;1.00;;;;;;;31.37;37.62;97970.13;6847765;28;20217;-84
2021/07/06 07:01:09;;;;;;;3.67;1.70;;;;;;;31.83;36.86;97983.25;6847484;28;20236;-85
2021/07/06 07:04:31;;;;;;;1.40;1.23;;;;;;;32.26;36.41;98005.38;6847205;28;20328;-85
2021/07/06 07:07:57;;;;;;;3.43;1.27;;;;;;;32.11;35.22;98007.00;6857647;28;20203;-84
2021/07/06 07:11:18;;;;;;;4.00;1.17;;;;;;;32.15;35.46;98007.91;6871751;28;20303;-85
2021/07/06 07:14:42;;;;;;;1.37;1.27;;;;;;;32.29;35.51;98021.38;6866938;28;20255;-85
2021/07/06 07:18:05;;;;;;;0.80;0.80;;;;;;;32.00;35.83;98033.84;6847427;29;20220;-85
2021/07/06 07:21:30;;;;;;;1.60;0.87;;;;;;;31.40;35.13;97908.94;6846665;28;20221;-84
2021/07/06 07:24:53;;;;;;;1.33;1.23;;;;;;;32.81;33.76;97991.00;6846210;28;20220;-84
2021/07/06 07:28:15;;;;;;;3.20;1.60;;;;;;;32.07;37.07;98022.84;6846365;29;20209;-83
2021/07/06 07:31:38;;;;;;;3.97;1.60;;;;;;;31.70;37.17;98010.38;6847712;28;20226;-85
2021/07/06 07:35:00;;;;;;;1.20;1.10;;;;;;;31.75;36.62;97971.13;6866587;28;20255;-84
2021/07/06 07:38:21;;;;;;;3.87;1.30;;;;;;;31.76;36.40;97964.38;6872333;28;20204;-85
2021/07/06 07:41:43;;;;;;;3.20;1.47;;;;;;;32.62;36.13;97991.00;6872758;28;20238;-86
2021/07/06 07:45:08;;;;;;;2.60;1.30;;;;;;;32.85;34.21;97991.91;6868105;28;20195;-87
2021/07/06 07:48:31;;;;;;;0.97;0.97;;;;;;;33.05;33.50;97999.06;6854424;28;20205;-84
2021/07/06 07:51:53;;;;;;;4.30;1.90;;;;;;;33.29;32.75;97996.75;6845972;29;20241;-84
2021/07/06 07:55:15;;;;;;;3.27;1.30;;;;;;;33.52;32.34;97994.75;6844676;29;20209;-84
2021/07/06 07:58:36;;;;;;;3.23;2.00;;;;;;;33.61;32.48;97997.31;6845502;29;20224;-84
2021/07/06 08:01:58;;;;;;;5.60;1.67;;;;;;;33.15;32.70;98004.88;6845524;29;20225;-84
2021/07/06 08:05:21;;;;;;;3.07;1.50;;;;;;;33.15;32.11;98006.84;6844908;29;20348;-87
2021/07/06 08:08:43;;;;;;;4.70;1.67;;;;;;;32.63;34.16;98009.34;6845877;29;20207;-88
2021/07/06 08:12:06;;;;;;;2.40;1.90;;;;;;;32.83;33.91;97988.69;6845267;29;20348;-88
2021/07/06 08:15:28;;;;;;;3.60;1.37;;;;;;;32.09;33.64;97853.16;6845966;29;20303;-87
2021/07/06 08:18:50;;;;;;;1.30;1.20;;;;;;;33.02;34.09;97964.28;6846436;29;20231;-87
2021/07/06 08:22:13;;;;;;;1.50;1.40;;;;;;;33.26;33.16;97933.16;6845907;29;20233;-87
2021/07/06 08:25:35;;;;;;;1.50;1.20;;;;;;;33.09;33.37;97918.91;6845377;28;20672;-88
2021/07/06 08:28:57;;;;;;;2.33;1.60;;;;;;;33.18;34.33;97952.97;6845950;29;20212;-87
2021/07/06 08:32:19;;;;;;;4.57;1.53;;;;;;;32.88;34.51;97913.75;6845745;28;20234;-85
2021/07/06 08:35:41;;;;;;;3.80;1.73;;;;;;;34.11;32.33;97994.94;6849782;28;20275;-86
2021/07/06 08:39:04;;;;;;;2.90;1.70;;;;;;;34.25;31.89;97997.13;6849943;29;20217;-87
2021/07/06 08:42:26;;;;;;;1.37;1.27;;;;;;;33.76;31.88;97963.59;6850080;29;20238;-87
2021/07/06 08:45:48;;;;;;;2.40;1.30;;;;;;;34.16;31.62;98024.56;6849356;29;20209;-87
2021/07/06 08:49:11;;;;;;;1.20;1.10;;;;;;;34.09;31.59;98030.88;6849866;29;20224;-87
2021/07/06 08:52:33;;;;;;;1.40;1.30;;;;;;;34.32;31.65;97980.44;6850307;29;20262;-87
2021/07/06 08:55:58;;;;;;;2.67;1.20;;;;;;;34.20;31.30;98059.81;6849930;29;20690;-86
2021/07/06 08:59:20;;;;;;;1.80;1.10;;;;;;;32.90;33.18;97991.59;6851252;28;20210;-86
2021/07/06 09:06:12;;;;;;;1.10;1.10;;;;;;;33.60;33.13;98074.00;6903217;23;20270;-87
2021/07/06 09:09:34;;;;;;;1.30;1.20;;;;;;;34.06;34.07;98112.78;6875722;28;20206;-85
2021/07/06 09:12:57;;;;;;;2.93;1.10;;;;;;;33.78;32.72;98123.47;6853284;28;20223;-84
2021/07/06 09:16:25;;;;;;;3.50;1.53;;;;;;;33.42;34.96;98135.16;6849577;29;20215;-85
2021/07/06 09:19:49;;;;;;;3.10;1.53;;;;;;;33.29;34.73;98096.53;6835170;29;20194;-84
2021/07/06 09:23:21;;;;;;;1.17;1.17;;;;;;;34.16;33.30;98150.50;6848500;28;20279;-84
2021/07/06 09:26:43;;;;;;;0.80;0.80;;;;;;;33.48;33.06;98172.81;6839057;29;20224;-85
2021/07/06 09:30:12;;;;;;;2.77;1.07;;;;;;;32.99;33.35;98155.00;6849016;29;20223;-85
2021/07/06 09:33:34;;;;;;;1.33;1.23;;;;;;;32.52;34.52;98195.34;6867318;23;20571;-86
2021/07/06 09:36:56;;;;;;;1.67;1.40;;;;;;;32.33;35.90;98220.41;6859981;28;20206;-85
2021/07/06 09:40:39;;;;;;;3.83;2.13;;;;;;;30.15;39.98;98288.13;6863774;28;20219;-84
2021/07/06 09:44:17;;;;;;;2.97;1.80;;;;;;;28.37;43.79;98292.97;6864986;28;20231;-86
2021/07/06 09:47:40;;;;;;;4.73;1.70;;;;;;;27.52;45.58;98278.47;6846994;28;20208;-86
2021/07/06 09:51:20;;;;;;;4.40;1.70;;;;;;;27.00;47.42;98316.34;6836146;28;20234;-85
2021/07/06 09:54:44;;;;;;;2.70;1.40;;;;;;;27.47;47.04;98329.28;6831157;29;20205;-85
2021/07/06 09:58:06;;;;;;;3.23;1.50;;;;;;;27.62;45.75;98323.28;6817521;29;20864;-86
2021/07/06 10:01:28;;;;;;;2.87;1.33;;;;;;;27.76;45.60;98325.84;6809568;29;20226;-86
2021/07/06 10:04:53;;;;;;;1.57;1.40;;;;;;;27.85;44.13;98332.25;6829242;29;20204;-85
2021/07/06 10:08:14;;;;;;;1.73;1.00;;;;;;;27.74;44.75;98311.53;6843006;28;20329;-87
2021/07/06 10:11:36;;;;;;;1.37;1.23;;;;;;;27.89;44.75;98311.84;6835984;28;20230;-86
2021/07/06 10:14:58;;;;;;;0.97;0.97;;;;;;;28.23;44.95;98277.69;6835404;29;20209;-86
2021/07/06 10:18:20;;;;;;;2.77;1.00;;;;;;;28.27;44.86;98276.69;6836232;29;20205;-86
2021/07/06 10:21:43;;;;;;;0.97;0.90;;;;;;;28.63;42.89;98263.19;6835365;28;20233;-87
2021/07/06 10:25:08;;;;;;;1.03;0.70;;;;;;;28.85;42.89;98273.16;6835223;29;20206;-87
2021/07/06 10:28:31;;;;;;;1.80;0.77;;;;;;;28.77;42.93;98276.81;6835399;29;20217;-85
2021/07/06 10:31:53;;;;;;;0.83;0.70;;;;;;;28.81;42.12;98278.56;6835340;28;20242;-86
2021/07/06 10:35:15;;;;;;;1.17;1.00;;;;;;;29.14;41.87;98271.19;6835022;28;20210;-86
2021/07/06 10:38:44;;;;;;;0.70;0.70;;;;;;;29.30;41.57;98249.97;6836034;29;20202;-87
2021/07/06 10:42:08;;;;;;;0.87;0.80;;;;;;;29.19;41.72;98276.53;6836996;28;20230;-86
2021/07/06 10:45:35;;;;;;;0.87;0.87;;;;;;;27.46;45.04;98249.31;6829238;29;20207;-86
2021/07/06 10:48:58;;;;;;;0.80;0.80;;;;;;;27.81;44.58;98262.00;6809186;28;20289;-85
2021/07/06 10:52:34;;;;;;;1.63;1.10;;;;;;;28.00;44.53;98246.63;6807398;29;20240;-85
2021/07/06 10:56:07;;;;;;;0.70;0.70;;;;;;;29.04;42.05;98231.91;6808057;29;20196;-86
2021/07/06 10:59:35;;;;;;;0.80;0.80;;;;;;;28.71;42.68;98230.97;6831162;29;20212;-85
2021/07/06 11:03:13;;;;;;;2.47;1.03;;;;;;;27.99;43.32;98220.06;6825471;28;20642;-85
2021/07/06 11:06:54;;;;;;;0.83;0.83;;;;;;;28.84;42.86;98250.13;6807336;29;20199;-86
2021/07/06 11:10:17;;;;;;;1.60;1.03;;;;;;;28.21;43.26;98246.69;6807220;29;20251;-85
2021/07/06 11:13:40;;;;;;;1.50;1.10;;;;;;;29.16;41.80;98255.00;6807636;29;20333;-85
2021/07/06 11:17:03;;;;;;;0.80;0.80;;;;;;;29.72;40.33;98264.69;6807628;29;20214;-84
2021/07/06 11:20:35;;;;;;;0.83;0.80;;;;;;;30.17;39.83;98257.16;6807601;29;20220;-85
2021/07/06 11:24:11;;;;;;;0.90;0.90;;;;;;;29.39;40.91;98258.25;6852827;28;20222;-85
2021/07/06 11:27:54;;;;;;;1.20;1.10;;;;;;;30.73;38.55;98237.59;6860611;28;20202;-85
2021/07/06 11:31:19;;;;;;;1.23;0.90;;;;;;;30.50;38.69;98247.59;6837524;28;20714;-85
2021/07/06 11:34:42;;;;;;;1.53;0.80;;;;;;;30.66;39.11;98250.50;6834077;29;20232;-85
2021/07/06 11:38:06;;;;;;;1.10;1.00;;;;;;;29.74;39.41;98240.13;6809798;29;20211;-85
2021/07/06 11:41:27;;;;;;;0.93;0.93;;;;;;;30.02;38.70;98211.34;6826323;28;20729;-85
2021/07/06 11:44:50;;;;;;;2.83;1.00;;;;;;;29.72;39.76;98254.34;6811542;29;20667;-85
2021/07/06 11:48:15;;;;;;;1.07;0.90;;;;;;;29.88;39.37;98232.28;6810974;29;20207;-85
2021/07/06 11:51:40;;;;;;;1.07;1.07;;;;;;;29.69;40.82;98271.72;6811414;29;20576;-85
2021/07/06 11:55:02;;;;;;;1.17;1.17;;;;;;;29.43;40.01;98281.44;6807872;29;20203;-85
2021/07/06 11:58:25;;;;;;;1.00;1.00;;;;;;;29.59;40.77;98286.03;6808448;29;20218;-85
2021/07/06 12:01:46;;;;;;;1.20;0.90;;;;;;;28.75;41.18;98229.16;6808082;29;20723;-85
2021/07/06 12:05:16;;;;;;;1.20;1.17;;;;;;;29.79;40.71;98315.75;6807059;29;20206;-85
2021/07/06 12:08:39;;;;;;;1.00;1.00;;;;;;;29.14;41.09;98334.25;6810111;29;20664;-85
2021/07/06 12:12:12;;;;;;;1.23;0.90;;;;;;;29.29;42.38;98342.78;6813212;29;20266;-85
2021/07/06 12:15:41;;;;;;;1.13;1.00;;;;;;;29.07;42.26;98301.44;6813332;29;20206;-85
2021/07/06 12:19:06;;;;;;;1.87;1.13;;;;;;;29.29;41.86;98330.84;6814704;29;20207;-85
2021/07/06 12:22:29;;;;;;;2.23;1.10;;;;;;;29.39;41.86;98328.50;6813888;29;20226;-84
2021/07/06 12:25:54;;;;;;;1.27;0.90;;;;;;;28.60;42.71;98321.31;6812689;29;20204;-85
2021/07/06 12:29:26;;;;;;;0.80;0.77;;;;;;;28.80;42.43;98310.25;6813308;29;20205;-85
2021/07/06 12:33:04;;;;;;;2.30;1.20;;;;;;;28.89;42.86;98321.31;6811213;29;20252;-84
2021/07/06 12:36:30;;;;;;;0.80;0.80;;;;;;;28.04;43.68;98291.94;6812974;29;20229;-84
2021/07/06 12:39:53;;;;;;;0.90;0.90;;;;;;;28.01;44.28;98295.34;6811460;29;20246;-85
2021/07/06 12:43:16;;;;;;;1.37;1.23;;;;;;;28.33;43.97;98321.69;6811639;29;20237;-85
2021/07/06 12:46:38;;;;;;;1.13;1.07;;;;;;;27.93;43.00;98267.66;6812069;29;20221;-85
2021/07/06 12:50:02;;;;;;;3.50;1.37;;;;;;;28.40;43.60;98320.06;6812397;29;20708;-85
2021/07/06 12:53:24;;;;;;;1.13;1.03;;;;;;;28.79;42.79;98338.34;6825832;29;20237;-85
2021/07/06 12:56:48;;;;;;;2.43;1.30;;;;;;;28.01;43.34;98314.75;6836842;29;20203;-85
2021/07/06 13:00:18;;;;;;;0.80;0.80;;;;;;;28.41;43.08;98343.06;6825398;29;20205;-85
2021/07/06 13:03:51;;;;;;;1.40;1.30;;;;;;;28.78;42.67;98345.03;6811531;29;20230;-85
2021/07/06 13:07:13;;;;;;;1.00;1.00;;;;;;;27.73;44.76;98341.16;6821480;29;20270;-84
2021/07/06 13:10:36;;;;;;;0.90;0.90;;;;;;;27.85;43.85;98343.31;6810999;29;20208;-85
2021/07/06 13:14:15;;;;;;;1.07;0.97;;;;;;;28.00;44.31;98346.41;6810481;29;20325;-85
2021/07/06 13:17:44;;;;;;;1.70;1.33;;;;;;;29.07;42.81;98354.19;6813396;28;20199;-85
2021/07/06 13:21:07;;;;;;;1.07;1.00;;;;;;;28.63;43.08;98367.78;6830916;29;20274;-85
2021/07/06 13:24:28;;;;;;;1.70;0.93;;;;;;;28.50;44.31;98369.63;6836516;29;20214;-85
2021/07/06 13:27:52;;;;;;;1.63;1.10;;;;;;;28.44;44.37;98370.97;6837361;29;20610;-85
2021/07/06 13:31:15;;;;;;;0.80;0.80;;;;;;;26.77;47.94;98395.06;6836636;28;20371;-85
2021/07/06 13:34:37;;;;;;;1.17;0.83;;;;;;;26.98;47.08;98400.84;6836523;29;20742;-86
2021/07/06 13:37:58;;;;;;;1.40;0.93;;;;;;;27.21;46.71;98358.94;6837009;29;20581;-85
2021/07/06 13:41:20;;;;;;;1.00;0.87;;;;;;;27.02;46.38;98330.66;6836629;29;20608;-85
2021/07/06 13:44:42;;;;;;;1.17;1.00;;;;;;;26.82;46.43;98277.91;6836509;29;20704;-85
2021/07/06 13:48:05;;;;;;;0.80;0.80;;;;;;;27.77;45.50;98380.97;6837339;29;20298;-85
2021/07/06 13:51:27;;;;;;;0.70;0.70;;;;;;;27.72;46.15;98381.09;6836525;29;20569;-85
2021/07/06 13:54:49;;;;;;;0.77;0.77;;;;;;;28.39;44.20;98387.78;6833309;29;20201;-85
2021/07/06 13:58:12;;;;;;;1.23;1.00;;;;;;;27.79;45.78;98384.22;6816366;29;20211;-84
2021/07/06 14:01:34;;;;;;;0.73;0.73;;;;;;;27.75;46.63;98377.69;6810392;29;20233;-85
2021/07/06 14:04:57;;;;;;;0.93;0.93;;;;;;;28.48;45.49;98380.25;6809289;29;20210;-85
2021/07/06 14:08:19;;;;;;;0.90;0.90;;;;;;;28.76;43.91;98372.28;6809615;29;20261;-85
2021/07/06 14:11:40;;;;;;;1.33;1.30;;;;;;;28.60;43.73;98365.69;6809647;29;20230;-85
2021/07/06 14:15:02;;;;;;;2.30;1.47;;;;;;;28.46;44.29;98359.53;6809151;29;20685;-85
2021/07/06 14:18:24;;;;;;;1.30;1.20;;;;;;;28.75;43.47;98359.56;6809357;29;20207;-85
2021/07/06 14:21:48;;;;;;;1.03;1.00;;;;;;;28.42;45.29;98331.63;6811654;29;20233;-85
2021/07/06 14:25:11;;;;;;;1.37;1.30;;;;;;;28.79;44.15;98332.78;6814136;29;20211;-85
2021/07/06 14:28:33;;;;;;;1.13;1.07;;;;;;;29.09;43.17;98353.88;6810172;29;20563;-85
2021/07/06 14:31:55;;;;;;;1.77;1.10;;;;;;;27.89;44.46;98222.38;6808285;29;20264;-85
2021/07/06 14:35:16;;;;;;;1.90;1.30;;;;;;;28.59;44.38;98351.00;6808284;29;20211;-85
2021/07/06 14:38:40;;;;;;;1.50;1.40;;;;;;;28.24;45.69;98346.66;6809282;29;20261;-84
2021/07/06 14:42:04;;;;;;;2.90;1.30;;;;;;;27.96;45.95;98339.88;6808904;29;20231;-85
2021/07/06 14:45:26;;;;;;;1.00;1.00;;;;;;;27.65;46.42;98325.38;6810372;29;20195;-83
2021/07/06 14:48:48;;;;;;;1.33;1.00;;;;;;;28.45;45.64;98316.28;6809493;29;20207;-85
2021/07/06 14:52:10;;;;;;;0.90;0.90;;;;;;;28.95;44.17;98333.84;6809410;29;20245;-85
2021/07/06 14:55:33;;;;;;;1.17;1.10;;;;;;;27.71;46.70;98331.59;6809946;29;20636;-84
2021/07/06 14:58:54;;;;;;;1.63;1.27;;;;;;;27.41;49.89;98332.53;6812736;29;20843;-84
2021/07/06 15:02:16;;;;;;;2.90;1.40;;;;;;;27.56;50.91;98323.75;6817284;29;20237;-84
2021/07/06 15:05:38;;;;;;;1.67;1.57;;;;;;;27.41;51.52;98297.38;6809323;29;20210;-85
2021/07/06 15:09:00;;;;;;;1.90;1.30;;;;;;;28.32;47.89;98297.88;6822189;29;20591;-84
2021/07/06 15:12:23;;;;;;;2.57;1.20;;;;;;;28.27;49.85;98326.63;6834271;28;20259;-85
2021/07/06 15:15:44;;;;;;;1.30;1.30;;;;;;;28.21;47.59;98297.44;6836899;28;20217;-85
2021/07/06 15:19:06;;;;;;;1.30;1.30;;;;;;;27.87;48.73;98307.78;6837295;28;20670;-85
2021/07/06 15:22:28;;;;;;;1.47;1.10;;;;;;;27.44;49.69;98309.75;6853882;28;20964;-84
2021/07/06 15:25:49;;;;;;;1.20;1.20;;;;;;;27.68;51.16;98321.97;6847675;28;20300;-85
2021/07/06 15:29:13;;;;;;;3.10;1.40;;;;;;;25.85;53.68;98305.75;6841951;28;20215;-84
2021/07/06 18:51:45;;;;;;;3.57;3.07;;;;;;;25.52;63.53;98503.16;6853953;28;20263;-82
2021/07/06 18:55:09;;;;;;;3.43;2.93;;;;;;;25.06;63.87;98515.38;6870008;28;20242;-82
2021/07/06 18:58:31;;;;;;;3.20;2.90;;;;;;;24.68;63.65;98541.47;6872061;28;20248;-82
2021/07/06 19:01:52;;;;;;;3.30;1.70;;;;;;;24.05;56.53;98540.25;6867265;28;20211;-81
2021/07/06 19:05:17;;;;;;;3.07;1.57;;;;;;;24.00;54.18;98527.41;6845416;28;20207;-81
2021/07/06 19:08:40;;;;;;;2.20;1.43;;;;;;;23.71;55.15;98532.19;6862395;28;20235;-82
2021/07/06 19:12:01;;;;;;;1.53;1.43;;;;;;;23.53;55.35;98545.91;6858686;28;20202;-81
2021/07/06 19:15:23;;;;;;;2.53;1.70;;;;;;;23.43;56.67;98524.84;6848336;29;20261;-82
2021/07/06 19:19:18;;;;;;;2.40;1.70;;;;;;;22.99;56.38;98474.75;6941879;23;20198;-81
2021/07/06 19:23:14;;;;;;;5.47;2.13;;;;;;;23.43;56.99;98535.84;6842629;28;20223;-81
2021/07/06 19:26:39;;;;;;;1.80;1.70;;;;;;;23.29;57.22;98531.34;6849266;29;20216;-81
2021/07/06 19:33:40;;;;;;;3.40;2.00;;;;;;;23.48;58.08;98527.53;6819755;29;20223;-83
2021/07/06 19:37:01;;;;;;;4.40;2.13;;;;;;;24.02;57.80;98535.38;6810801;29;20191;-83
2021/07/06 19:40:23;;;;;;;2.13;1.70;;;;;;;23.96;56.90;98539.31;6812101;29;20232;-83
2021/07/06 19:43:46;;;;;;;1.60;1.50;;;;;;;23.79;55.86;98530.72;6814215;29;20211;-83
2021/07/06 19:47:08;;;;;;;3.27;1.80;;;;;;;23.40;55.68;98522.69;6813254;29;20215;-83
2021/07/06 19:50:29;;;;;;;2.73;1.70;;;;;;;22.95;59.56;98538.88;6813749;29;20231;-81
2021/07/06 19:53:51;;;;;;;2.23;1.90;;;;;;;23.68;56.16;98570.50;6814105;29;20218;-83
2021/07/06 19:57:13;;;;;;;4.33;2.20;;;;;;;22.94;59.90;98584.78;6818507;29;20200;-83
2021/07/06 20:00:36;;;;;;;3.80;2.33;;;;;;;22.27;60.90;98565.56;6814058;28;20228;-83
2021/07/06 20:03:58;;;;;;;2.20;2.10;;;;;;;22.42;60.76;98564.63;6812731;29;20220;-83
2021/07/06 20:07:23;;;;;;;2.67;1.80;;;;;;;22.23;59.13;98572.72;6814888;29;20204;-83
2021/07/06 20:10:47;;;;;;;2.10;1.90;;;;;;;22.59;60.88;98559.56;6812368;29;20236;-83
2021/07/06 20:14:11;;;;;;;2.63;1.50;;;;;;;22.57;59.68;98592.00;6807614;29;20241;-84
2021/07/06 20:17:34;;;;;;;2.17;1.93;;;;;;;23.13;59.04;98604.16;6808030;29;20663;-84
2021/07/06 20:20:56;;;;;;;3.33;1.67;;;;;;;23.08;60.48;98598.69;6807560;29;20920;-83
2021/07/06 20:24:18;;;;;;;4.00;2.10;;;;;;;22.66;61.31;98579.28;6807442;29;20212;-84
2021/07/06 20:27:40;;;;;;;4.20;2.20;;;;;;;22.92;59.82;98592.53;6807188;29;20217;-84
2021/07/06 20:31:02;;;;;;;2.03;1.83;;;;;;;22.68;60.33;98588.06;6811556;29;20585;-83
2021/07/06 20:34:25;;;;;;;4.27;1.60;;;;;;;22.93;59.16;98602.41;6811129;29;20347;-83
2021/07/06 20:37:47;;;;;;;4.00;2.13;;;;;;;22.93;59.17;98599.66;6812166;29;20901;-83
2021/07/06 20:41:08;;;;;;;3.00;2.10;;;;;;;23.02;60.06;98606.16;6811809;29;20691;-83
2021/07/06 20:44:30;;;;;;;2.87;2.20;;;;;;;23.20;58.86;98621.16;6812154;29;20601;-83
2021/07/06 20:47:51;;;;;;;2.30;1.57;;;;;;;23.15;59.57;98619.25;6812017;29;20573;-83
2021/07/06 20:51:15;;;;;;;3.10;2.00;;;;;;;22.82;59.96;98598.09;6811767;29;20855;-83
2021/07/06 20:54:39;;;;;;;5.03;2.13;;;;;;;22.08;60.70;98610.44;6797734;29;20233;-83
2021/07/06 20:58:01;;;;;;;4.10;2.10;;;;;;;22.38;61.41;98616.59;6786413;29;20204;-80
